createdAt,value
2018-07-24T00:00:18.195Z,1009.3
2018-07-24T00:01:20.205Z,1009.3
2018-07-24T00:02:22.475Z,1009.3
2018-07-24T00:03:24.471Z,1009.3
2018-07-24T00:04:26.464Z,1009.3
2018-07-24T00:05:28.465Z,1009.3
2018-07-24T00:06:30.451Z,1009.3
2018-07-24T00:07:32.449Z,1009.3
2018-07-24T00:08:34.452Z,1009.3
2018-07-24T00:09:36.445Z,1009.3
2018-07-24T00:10:38.751Z,1009.3
2018-07-24T00:11:40.743Z,1009.3
2018-07-24T00:12:42.741Z,1009.3
2018-07-24T00:13:44.730Z,1009.3
2018-07-24T00:14:46.729Z,1009.3
2018-07-24T00:15:48.725Z,1009.3
2018-07-24T00:16:51.016Z,1009.3
2018-07-24T00:17:53.317Z,1009.3
2018-07-24T00:18:55.726Z,1009.3
2018-07-24T00:19:57.728Z,1009.4
2018-07-24T00:21:00.022Z,1009.4
2018-07-24T00:22:02.015Z,1009.3
2018-07-24T00:23:04.011Z,1009.3
2018-07-24T00:24:06.013Z,1009.3
2018-07-24T00:25:08.010Z,1009.4
2018-07-24T00:26:10.015Z,1009.4
2018-07-24T00:27:12.021Z,1009.3
2018-07-24T00:28:14.013Z,1009.3
2018-07-24T00:29:16.286Z,1009.3
2018-07-24T00:30:18.288Z,1009.3
2018-07-24T00:31:20.281Z,1009.3
2018-07-24T00:32:22.270Z,1009.3
2018-07-24T00:33:24.269Z,1009.3
2018-07-24T00:34:26.254Z,1009.3
2018-07-24T00:35:28.262Z,1009.3
2018-07-24T00:36:30.260Z,1009.3
2018-07-24T00:37:32.577Z,1009.3
2018-07-24T00:38:34.567Z,1009.3
2018-07-24T00:39:36.566Z,1009.3
2018-07-24T00:40:38.561Z,1009.3
2018-07-24T00:41:40.551Z,1009.3
2018-07-24T00:42:42.563Z,1009.3
2018-07-24T00:43:44.549Z,1009.3
2018-07-24T00:44:46.548Z,1009.3
2018-07-24T00:45:48.821Z,1009.2
2018-07-24T00:46:50.822Z,1009.2
2018-07-24T00:47:52.814Z,1009.2
2018-07-24T00:48:54.813Z,1009.2
2018-07-24T00:49:57.199Z,1009.2
2018-07-24T00:50:59.184Z,1009.2
2018-07-24T00:52:01.186Z,1009.2
2018-07-24T00:53:03.185Z,1009.2
2018-07-24T00:54:05.230Z,1009.1
2018-07-24T00:55:07.956Z,1009.1
2018-07-24T00:56:09.949Z,1009.1
2018-07-24T00:57:11.953Z,1009.1
2018-07-24T00:58:14.342Z,1009.1
2018-07-24T00:59:16.330Z,1009.1
2018-07-24T01:00:18.610Z,1009.1
2018-07-24T01:01:20.609Z,1009.1
2018-07-24T01:02:22.608Z,1009.1
2018-07-24T01:03:24.918Z,1009.1
2018-07-24T01:04:27.191Z,1009.1
2018-07-24T01:05:29.181Z,1009.1
2018-07-24T01:06:31.181Z,1009
2018-07-24T01:07:33.167Z,1009
2018-07-24T01:08:35.186Z,1009
2018-07-24T01:09:38.034Z,1009
2018-07-24T01:10:40.313Z,1009
2018-07-24T01:11:42.606Z,1009
2018-07-24T01:12:44.607Z,1009
2018-07-24T01:13:46.598Z,1009
2018-07-24T01:14:48.590Z,1009
2018-07-24T01:15:50.595Z,1009
2018-07-24T01:16:52.576Z,1009
2018-07-24T01:17:54.572Z,1009
2018-07-24T01:18:56.562Z,1008.9
2018-07-24T01:19:58.562Z,1009
2018-07-24T01:21:01.217Z,1008.9
2018-07-24T01:22:03.218Z,1008.9
2018-07-24T01:23:05.600Z,1008.9
2018-07-24T01:24:07.868Z,1008.9
2018-07-24T01:25:10.258Z,1008.9
2018-07-24T01:26:12.253Z,1008.9
2018-07-24T01:27:14.541Z,1008.9
2018-07-24T01:28:16.535Z,1008.9
2018-07-24T01:29:18.536Z,1008.9
2018-07-24T01:30:20.805Z,1009
2018-07-24T01:31:22.804Z,1008.9
2018-07-24T01:32:24.801Z,1009
2018-07-24T01:33:26.792Z,1008.9
2018-07-24T01:34:28.800Z,1009
2018-07-24T01:35:31.363Z,1009
2018-07-24T01:36:33.366Z,1009
2018-07-24T01:37:35.646Z,1009
2018-07-24T01:38:37.655Z,1009
2018-07-24T01:39:40.035Z,1008.9
2018-07-24T01:40:42.048Z,1008.9
2018-07-24T01:41:44.044Z,1008.9
2018-07-24T01:42:46.043Z,1008.9
2018-07-24T01:43:48.040Z,1009
2018-07-24T01:44:50.048Z,1009
2018-07-24T01:45:52.324Z,1009
2018-07-24T01:46:54.327Z,1008.9
2018-07-24T01:47:56.334Z,1008.9
2018-07-24T01:48:58.320Z,1008.9
2018-07-24T01:50:01.003Z,1008.9
2018-07-24T01:51:03.001Z,1008.9
2018-07-24T01:52:05.286Z,1008.9
2018-07-24T01:53:07.284Z,1008.9
2018-07-24T01:54:09.288Z,1008.9
2018-07-24T01:55:11.290Z,1008.9
2018-07-24T01:56:13.591Z,1008.9
2018-07-24T01:57:15.605Z,1008.9
2018-07-24T01:58:17.595Z,1008.9
2018-07-24T01:59:19.598Z,1008.9
2018-07-24T02:00:21.601Z,1008.9
2018-07-24T02:01:23.599Z,1008.9
2018-07-24T02:02:25.596Z,1008.9
2018-07-24T02:03:27.603Z,1008.9
2018-07-24T02:04:29.601Z,1008.9
2018-07-24T02:05:31.601Z,1008.9
2018-07-24T02:06:33.613Z,1008.9
2018-07-24T02:07:35.913Z,1008.9
2018-07-24T02:08:37.920Z,1008.9
2018-07-24T02:09:39.916Z,1009
2018-07-24T02:10:41.919Z,1008.9
2018-07-24T02:11:43.923Z,1008.9
2018-07-24T02:12:46.304Z,1008.9
2018-07-24T02:13:48.315Z,1009
2018-07-24T02:14:50.600Z,1008.9
2018-07-24T02:15:53.189Z,1008.9
2018-07-24T02:16:55.187Z,1008.9
2018-07-24T02:17:57.493Z,1008.9
2018-07-24T02:18:59.485Z,1008.9
2018-07-24T02:20:01.769Z,1009
2018-07-24T02:21:04.446Z,1008.9
2018-07-24T02:22:06.438Z,1008.9
2018-07-24T02:23:08.726Z,1009
2018-07-24T02:24:10.725Z,1008.9
2018-07-24T02:25:12.733Z,1008.9
2018-07-24T02:26:14.726Z,1008.9
2018-07-24T02:27:16.731Z,1008.9
2018-07-24T02:28:18.725Z,1008.9
2018-07-24T02:29:21.025Z,1008.9
2018-07-24T02:30:23.044Z,1008.9
2018-07-24T02:31:25.417Z,1008.9
2018-07-24T02:32:27.415Z,1008.9
2018-07-24T02:33:29.706Z,1008.9
2018-07-24T02:34:32.267Z,1008.9
2018-07-24T02:35:34.260Z,1008.9
2018-07-24T02:36:36.269Z,1008.9
2018-07-24T02:37:39.224Z,1008.9
2018-07-24T02:38:41.227Z,1008.9
2018-07-24T02:39:43.237Z,1008.9
2018-07-24T02:40:45.237Z,1008.9
2018-07-24T02:41:47.241Z,1008.9
2018-07-24T02:42:49.534Z,1008.9
2018-07-24T02:43:51.822Z,1008.9
2018-07-24T02:44:54.109Z,1008.9
2018-07-24T02:45:56.115Z,1008.9
2018-07-24T02:46:58.109Z,1008.8
2018-07-24T02:48:00.119Z,1008.9
2018-07-24T02:49:02.401Z,1008.8
2018-07-24T02:50:04.411Z,1008.8
2018-07-24T02:51:06.406Z,1008.8
2018-07-24T02:52:08.413Z,1008.8
2018-07-24T02:53:10.698Z,1008.8
2018-07-24T02:54:13.251Z,1008.8
2018-07-24T02:55:16.247Z,1008.8
2018-07-24T02:56:18.909Z,1008.8
2018-07-24T02:57:20.911Z,1008.8
2018-07-24T02:58:22.908Z,1008.8
2018-07-24T02:59:25.225Z,1008.8
2018-07-24T03:00:27.574Z,1008.8
2018-07-24T03:01:30.164Z,1008.8
2018-07-24T03:02:32.474Z,1008.8
2018-07-24T03:03:34.462Z,1008.8
2018-07-24T03:04:36.482Z,1008.8
2018-07-24T03:05:38.485Z,1008.8
2018-07-24T03:06:40.481Z,1008.8
2018-07-24T03:07:42.483Z,1008.8
2018-07-24T03:08:44.490Z,1008.8
2018-07-24T03:09:46.487Z,1008.8
2018-07-24T03:10:48.773Z,1008.8
2018-07-24T03:11:50.767Z,1008.8
2018-07-24T03:12:52.758Z,1008.8
2018-07-24T03:13:54.760Z,1008.8
2018-07-24T03:14:56.764Z,1008.8
2018-07-24T03:15:58.761Z,1008.8
2018-07-24T03:17:00.776Z,1008.8
2018-07-24T03:18:03.383Z,1008.8
2018-07-24T03:19:05.359Z,1008.8
2018-07-24T03:20:07.672Z,1008.8
2018-07-24T03:21:09.664Z,1008.8
2018-07-24T03:22:11.664Z,1008.8
2018-07-24T03:23:14.045Z,1008.8
2018-07-24T03:24:16.432Z,1008.8
2018-07-24T03:25:18.438Z,1008.8
2018-07-24T03:26:20.720Z,1008.8
2018-07-24T03:27:23.100Z,1008.8
2018-07-24T03:28:25.118Z,1008.8
2018-07-24T03:29:27.391Z,1008.8
2018-07-24T03:30:29.393Z,1008.8
2018-07-24T03:31:31.390Z,1008.8
2018-07-24T03:32:33.786Z,1008.8
2018-07-24T03:33:35.783Z,1008.8
2018-07-24T03:34:37.788Z,1008.8
2018-07-24T03:35:39.794Z,1008.8
2018-07-24T03:36:41.837Z,1008.9
2018-07-24T03:37:43.852Z,1008.9
2018-07-24T03:38:45.857Z,1008.9
2018-07-24T03:39:47.945Z,1008.9
2018-07-24T03:40:49.849Z,1008.9
2018-07-24T03:41:52.237Z,1008.9
2018-07-24T03:42:54.233Z,1008.8
2018-07-24T03:43:56.520Z,1008.8
2018-07-24T03:44:58.914Z,1008.8
2018-07-24T03:46:01.187Z,1008.8
2018-07-24T03:47:03.193Z,1008.8
2018-07-24T03:48:05.499Z,1008.9
2018-07-24T03:49:07.491Z,1008.9
2018-07-24T03:50:09.779Z,1008.9
2018-07-24T03:51:11.785Z,1008.9
2018-07-24T03:52:14.448Z,1008.8
2018-07-24T03:53:16.457Z,1008.9
2018-07-24T03:54:18.455Z,1008.9
2018-07-24T03:55:20.732Z,1008.8
2018-07-24T03:56:22.730Z,1008.8
2018-07-24T03:57:24.736Z,1008.9
2018-07-24T03:58:26.733Z,1008.8
2018-07-24T03:59:28.734Z,1008.9
2018-07-24T04:00:31.127Z,1008.8
2018-07-24T04:01:33.122Z,1008.9
2018-07-24T04:02:35.413Z,1008.9
2018-07-24T04:03:37.804Z,1008.8
2018-07-24T04:04:39.801Z,1008.9
2018-07-24T04:05:41.806Z,1008.9
2018-07-24T04:06:44.084Z,1008.9
2018-07-24T04:07:46.096Z,1008.8
2018-07-24T04:08:48.101Z,1008.9
2018-07-24T04:09:50.095Z,1008.8
2018-07-24T04:10:52.107Z,1008.8
2018-07-24T04:11:54.107Z,1008.8
2018-07-24T04:12:56.104Z,1008.8
2018-07-24T04:13:58.105Z,1008.8
2018-07-24T04:15:00.111Z,1008.8
2018-07-24T04:16:02.111Z,1008.8
2018-07-24T04:17:04.118Z,1008.9
2018-07-24T04:18:06.117Z,1008.8
2018-07-24T04:19:08.496Z,1008.8
2018-07-24T04:20:10.887Z,1008.8
2018-07-24T04:21:12.892Z,1008.8
2018-07-24T04:22:14.889Z,1008.8
2018-07-24T04:23:16.896Z,1008.9
2018-07-24T04:24:19.598Z,1008.9
2018-07-24T04:25:21.591Z,1008.9
2018-07-24T04:26:23.604Z,1008.9
2018-07-24T04:27:25.602Z,1008.8
2018-07-24T04:28:27.986Z,1008.9
2018-07-24T04:29:29.987Z,1008.8
2018-07-24T04:30:32.284Z,1008.8
2018-07-24T04:31:34.281Z,1008.8
2018-07-24T04:32:36.564Z,1008.9
2018-07-24T04:33:38.572Z,1008.8
2018-07-24T04:34:40.567Z,1008.8
2018-07-24T04:35:42.579Z,1008.9
2018-07-24T04:36:44.582Z,1008.9
2018-07-24T04:37:46.589Z,1008.9
2018-07-24T04:38:48.582Z,1008.9
2018-07-24T04:39:50.617Z,1008.9
2018-07-24T04:40:53.053Z,1008.9
2018-07-24T04:41:55.059Z,1008.9
2018-07-24T04:42:57.435Z,1008.9
2018-07-24T04:43:59.450Z,1008.9
2018-07-24T04:45:01.453Z,1008.9
2018-07-24T04:46:03.450Z,1009
2018-07-24T04:47:05.455Z,1008.9
2018-07-24T04:48:07.458Z,1009
2018-07-24T04:49:09.455Z,1008.9
2018-07-24T04:50:11.461Z,1008.9
2018-07-24T04:51:13.461Z,1008.9
2018-07-24T04:52:15.458Z,1008.9
2018-07-24T04:53:17.463Z,1008.9
2018-07-24T04:54:19.471Z,1008.9
2018-07-24T04:55:21.466Z,1008.9
2018-07-24T04:56:23.475Z,1008.9
2018-07-24T04:57:25.484Z,1008.9
2018-07-24T04:58:27.479Z,1008.9
2018-07-24T04:59:29.494Z,1009
2018-07-24T05:00:31.493Z,1008.9
2018-07-24T05:01:33.496Z,1008.9
2018-07-24T05:02:35.783Z,1008.9
2018-07-24T05:03:37.787Z,1008.9
2018-07-24T05:04:39.782Z,1008.9
2018-07-24T05:05:41.786Z,1008.9
2018-07-24T05:06:43.797Z,1009
2018-07-24T05:07:45.790Z,1008.9
2018-07-24T05:08:48.085Z,1009
2018-07-24T05:09:50.365Z,1008.9
2018-07-24T05:10:52.374Z,1008.9
2018-07-24T05:11:54.757Z,1008.9
2018-07-24T05:12:57.046Z,1008.9
2018-07-24T05:13:59.043Z,1008.9
2018-07-24T05:15:01.339Z,1008.9
2018-07-24T05:16:03.632Z,1008.9
2018-07-24T05:17:06.010Z,1008.9
2018-07-24T05:18:08.011Z,1008.9
2018-07-24T05:19:10.019Z,1008.9
2018-07-24T05:20:12.301Z,1008.9
2018-07-24T05:21:14.684Z,1008.9
2018-07-24T05:22:16.693Z,1009
2018-07-24T05:23:18.698Z,1008.9
2018-07-24T05:24:20.701Z,1008.9
2018-07-24T05:25:22.713Z,1008.9
2018-07-24T05:26:24.997Z,1009
2018-07-24T05:27:26.996Z,1009
2018-07-24T05:28:29.004Z,1009
2018-07-24T05:29:31.286Z,1009
2018-07-24T05:30:33.278Z,1009
2018-07-24T05:31:35.287Z,1009
2018-07-24T05:32:37.664Z,1009
2018-07-24T05:33:39.954Z,1009
2018-07-24T05:34:41.960Z,1009
2018-07-24T05:35:43.972Z,1009
2018-07-24T05:36:46.353Z,1009
2018-07-24T05:37:48.364Z,1009
2018-07-24T05:38:50.392Z,1009.1
2018-07-24T05:39:52.749Z,1009.1
2018-07-24T05:40:55.048Z,1009
2018-07-24T05:41:57.322Z,1009
2018-07-24T05:42:59.721Z,1009
2018-07-24T05:44:01.714Z,1009.1
2018-07-24T05:45:03.730Z,1009.1
2018-07-24T05:46:06.008Z,1009.1
2018-07-24T05:47:08.019Z,1009.1
2018-07-24T05:48:10.611Z,1009.1
2018-07-24T05:49:12.607Z,1009.1
2018-07-24T05:50:14.620Z,1009.1
2018-07-24T05:51:16.625Z,1009.1
2018-07-24T05:52:18.906Z,1009.1
2018-07-24T05:53:21.212Z,1009
2018-07-24T05:54:23.220Z,1009.1
2018-07-24T05:55:25.225Z,1009.1
2018-07-24T05:56:27.268Z,1009.1
2018-07-24T05:57:29.232Z,1009.1
2018-07-24T05:58:31.249Z,1009.1
2018-07-24T05:59:33.249Z,1009.1
2018-07-24T06:00:35.252Z,1009.1
2018-07-24T06:01:37.921Z,1009.1
2018-07-24T06:02:39.924Z,1009.1
2018-07-24T06:03:41.921Z,1009.1
2018-07-24T06:04:43.934Z,1009.1
2018-07-24T06:05:45.928Z,1009.1
2018-07-24T06:06:47.937Z,1009.1
2018-07-24T06:07:49.952Z,1009.1
2018-07-24T06:08:52.245Z,1009.1
2018-07-24T06:09:54.523Z,1009.1
2018-07-24T06:10:56.536Z,1009.1
2018-07-24T06:11:58.538Z,1009.1
2018-07-24T06:13:00.577Z,1009.1
2018-07-24T06:14:02.553Z,1009.1
2018-07-24T06:15:04.545Z,1009.1
2018-07-24T06:16:06.549Z,1009.2
2018-07-24T06:17:09.064Z,1009.2
2018-07-24T06:18:11.075Z,1009.2
2018-07-24T06:19:13.480Z,1009.2
2018-07-24T06:20:15.468Z,1009.2
2018-07-24T06:21:17.479Z,1009.2
2018-07-24T06:22:19.472Z,1009.2
2018-07-24T06:23:21.769Z,1009.2
2018-07-24T06:24:23.775Z,1009.3
2018-07-24T06:25:25.776Z,1009.2
2018-07-24T06:26:28.169Z,1009.2
2018-07-24T06:27:30.181Z,1009.2
2018-07-24T06:28:32.182Z,1009.2
2018-07-24T06:29:34.474Z,1009.2
2018-07-24T06:30:36.487Z,1009.2
2018-07-24T06:31:38.481Z,1009.3
2018-07-24T06:32:40.487Z,1009.2
2018-07-24T06:33:42.490Z,1009.2
2018-07-24T06:34:44.882Z,1009.2
2018-07-24T06:35:46.882Z,1009.2
2018-07-24T06:36:49.268Z,1009.2
2018-07-24T06:37:51.667Z,1009.2
2018-07-24T06:38:53.661Z,1009.2
2018-07-24T06:39:55.675Z,1009.2
2018-07-24T06:40:57.681Z,1009.2
2018-07-24T06:41:59.979Z,1009.2
2018-07-24T06:43:02.261Z,1009.2
2018-07-24T06:44:04.660Z,1009.2
2018-07-24T06:45:06.669Z,1009.2
2018-07-24T06:46:08.671Z,1009.2
2018-07-24T06:47:10.984Z,1009.2
2018-07-24T06:48:12.975Z,1009.2
2018-07-24T06:49:15.262Z,1009.2
2018-07-24T06:50:17.262Z,1009.2
2018-07-24T06:51:19.347Z,1009.3
2018-07-24T06:52:22.783Z,1009.2
2018-07-24T06:53:25.179Z,1009.3
2018-07-24T06:54:27.195Z,1009.3
2018-07-24T06:55:29.575Z,1009.3
2018-07-24T06:56:31.611Z,1009.3
2018-07-24T06:57:33.605Z,1009.3
2018-07-24T06:58:35.605Z,1009.3
2018-07-24T06:59:37.614Z,1009.2
2018-07-24T07:00:39.629Z,1009.3
2018-07-24T07:01:41.631Z,1009.3
2018-07-24T07:02:43.647Z,1009.3
2018-07-24T07:03:45.655Z,1009.3
2018-07-24T07:04:47.931Z,1009.3
2018-07-24T07:05:49.945Z,1009.2
2018-07-24T07:06:51.956Z,1009.3
2018-07-24T07:07:53.961Z,1009.3
2018-07-24T07:08:55.978Z,1009.3
2018-07-24T07:09:57.992Z,1009.3
2018-07-24T07:11:00.568Z,1009.2
2018-07-24T07:12:02.566Z,1009.2
2018-07-24T07:13:04.640Z,1009.2
2018-07-24T07:14:07.082Z,1009.2
2018-07-24T07:15:09.099Z,1009.2
2018-07-24T07:16:11.129Z,1009.2
2018-07-24T07:17:13.129Z,1009.2
2018-07-24T07:18:15.149Z,1009.2
2018-07-24T07:19:17.435Z,1009.2
2018-07-24T07:20:19.456Z,1009.1
2018-07-24T07:21:21.452Z,1009.1
2018-07-24T07:22:23.461Z,1009.2
2018-07-24T07:23:25.580Z,1009.2
2018-07-24T07:24:27.830Z,1009.1
2018-07-24T07:25:29.837Z,1009.1
2018-07-24T07:26:31.854Z,1009.2
2018-07-24T07:27:33.865Z,1009.1
2018-07-24T07:28:36.435Z,1009.2
2018-07-24T07:29:38.452Z,1009.2
2018-07-24T07:30:40.463Z,1009.1
2018-07-24T07:31:42.472Z,1009.2
2018-07-24T07:32:44.483Z,1009.2
2018-07-24T07:33:46.499Z,1009.2
2018-07-24T07:34:48.513Z,1009.2
2018-07-24T07:35:51.191Z,1009.1
2018-07-24T07:36:53.202Z,1009.2
2018-07-24T07:37:55.203Z,1009.2
2018-07-24T07:38:57.223Z,1009.2
2018-07-24T07:39:59.234Z,1009.2
2018-07-24T07:41:01.541Z,1009.2
2018-07-24T07:42:03.560Z,1009.2
2018-07-24T07:43:06.244Z,1009.2
2018-07-24T07:44:08.553Z,1009.2
2018-07-24T07:45:10.581Z,1009.2
2018-07-24T07:46:12.872Z,1009.2
2018-07-24T07:47:14.887Z,1009.2
2018-07-24T07:48:16.893Z,1009.2
2018-07-24T07:49:18.914Z,1009.2
2018-07-24T07:50:20.923Z,1009.2
2018-07-24T07:51:23.003Z,1009.2
2018-07-24T07:52:25.302Z,1009.2
2018-07-24T07:53:27.644Z,1009.1
2018-07-24T07:54:29.667Z,1009.2
2018-07-24T07:55:31.678Z,1009.1
2018-07-24T07:56:33.694Z,1009.1
2018-07-24T07:57:36.089Z,1009.1
2018-07-24T07:58:38.115Z,1009.1
2018-07-24T07:59:40.118Z,1009.1
2018-07-24T08:00:42.120Z,1009.1
2018-07-24T08:01:44.151Z,1009.1
2018-07-24T08:02:46.450Z,1009
2018-07-24T08:03:48.464Z,1009.1
2018-07-24T08:04:50.478Z,1009.1
2018-07-24T08:05:52.519Z,1009.1
2018-07-24T08:06:54.497Z,1009
2018-07-24T08:07:56.881Z,1009
2018-07-24T08:08:59.772Z,1009.1
2018-07-24T08:10:02.174Z,1009
2018-07-24T08:11:04.466Z,1009
2018-07-24T08:12:07.430Z,1009
2018-07-24T08:13:09.474Z,1009
2018-07-24T08:14:11.845Z,1009
2018-07-24T08:15:14.306Z,1009
2018-07-24T08:16:16.359Z,1009
2018-07-24T08:17:18.411Z,1009
2018-07-24T08:18:20.454Z,1009
2018-07-24T08:19:22.509Z,1009
2018-07-24T08:20:24.560Z,1009
2018-07-24T08:21:26.617Z,1008.9
2018-07-24T08:22:29.347Z,1008.9
2018-07-24T08:23:31.403Z,1009
2018-07-24T08:24:33.458Z,1009
2018-07-24T08:25:35.504Z,1008.9
2018-07-24T08:26:37.842Z,1008.9
2018-07-24T08:27:40.251Z,1008.9
2018-07-24T08:28:42.251Z,1009
2018-07-24T08:29:44.309Z,1008.9
2018-07-24T08:30:46.356Z,1008.9
2018-07-24T08:31:48.413Z,1008.9
2018-07-24T08:32:50.459Z,1008.8
2018-07-24T08:33:52.798Z,1008.9
2018-07-24T08:34:55.148Z,1008.9
2018-07-24T08:35:57.492Z,1008.9
2018-07-24T08:36:59.834Z,1008.8
2018-07-24T08:38:01.895Z,1008.8
2018-07-24T08:39:03.947Z,1008.9
2018-07-24T08:40:05.995Z,1008.8
2018-07-24T08:41:08.056Z,1008.8
2018-07-24T08:42:10.107Z,1008.8
2018-07-24T08:43:12.161Z,1008.9
2018-07-24T08:44:14.235Z,1008.9
2018-07-24T08:45:16.273Z,1008.9
2018-07-24T08:46:18.329Z,1008.9
2018-07-24T08:47:20.833Z,1008.8
2018-07-24T08:48:22.893Z,1008.8
2018-07-24T08:49:24.942Z,1008.8
2018-07-24T08:50:27.011Z,1008.9
2018-07-24T08:51:29.439Z,1008.8
2018-07-24T08:52:31.630Z,1008.8
2018-07-24T08:53:34.656Z,1008.8
2018-07-24T08:54:37.448Z,1008.8
2018-07-24T08:55:41.050Z,1008.8
2018-07-24T08:56:42.797Z,1008.8
2018-07-24T08:57:44.895Z,1008.8
2018-07-24T08:58:46.898Z,1008.8
2018-07-24T08:59:49.246Z,1008.8
2018-07-24T09:00:51.291Z,1008.8
2018-07-24T09:01:53.345Z,1008.7
2018-07-24T09:02:55.453Z,1008.7
2018-07-24T09:03:57.457Z,1008.8
2018-07-24T09:04:59.807Z,1008.7
2018-07-24T09:06:01.862Z,1008.8
2018-07-24T09:07:04.588Z,1008.8
2018-07-24T09:08:06.819Z,1008.8
2018-07-24T09:09:08.869Z,1008.8
2018-07-24T09:10:10.957Z,1008.7
2018-07-24T09:11:12.990Z,1008.7
2018-07-24T09:12:15.050Z,1008.7
2018-07-24T09:13:17.387Z,1008.8
2018-07-24T09:14:19.446Z,1008.8
2018-07-24T09:15:21.797Z,1008.7
2018-07-24T09:16:23.849Z,1008.7
2018-07-24T09:17:26.203Z,1008.7
2018-07-24T09:18:28.259Z,1008.7
2018-07-24T09:19:30.311Z,1008.7
2018-07-24T09:20:32.373Z,1008.7
2018-07-24T09:21:34.424Z,1008.7
2018-07-24T09:22:36.757Z,1008.7
2018-07-24T09:23:39.105Z,1008.7
2018-07-24T09:24:41.149Z,1008.7
2018-07-24T09:25:43.495Z,1008.7
2018-07-24T09:26:45.844Z,1008.7
2018-07-24T09:27:47.901Z,1008.7
2018-07-24T09:28:50.414Z,1008.7
2018-07-24T09:29:52.476Z,1008.7
2018-07-24T09:30:54.918Z,1008.7
2018-07-24T09:31:56.969Z,1008.6
2018-07-24T09:32:59.385Z,1008.6
2018-07-24T09:34:01.716Z,1008.6
2018-07-24T09:35:03.791Z,1008.6
2018-07-24T09:36:05.839Z,1008.6
2018-07-24T09:37:08.843Z,1008.6
2018-07-24T09:38:15.727Z,1008.6
2018-07-24T09:39:22.400Z,1008.6
2018-07-24T09:40:29.533Z,1008.6
2018-07-24T09:41:38.545Z,1008.6
2018-07-24T09:42:45.188Z,1008.7
2018-07-24T09:43:49.162Z,1008.7
2018-07-24T09:44:59.357Z,1008.7
2018-07-24T09:46:06.253Z,1008.7
2018-07-24T09:47:10.368Z,1008.7
2018-07-24T09:48:12.430Z,1008.7
2018-07-24T09:49:14.482Z,1008.7
2018-07-24T09:50:16.547Z,1008.7
2018-07-24T09:51:18.895Z,1008.7
2018-07-24T09:52:20.957Z,1008.6
2018-07-24T09:53:23.010Z,1008.6
2018-07-24T09:54:25.073Z,1008.6
2018-07-24T09:55:27.514Z,1008.6
2018-07-24T09:56:29.947Z,1008.6
2018-07-24T09:57:32.311Z,1008.5
2018-07-24T09:58:34.358Z,1008.5
2018-07-24T09:59:36.424Z,1008.6
2018-07-24T10:00:38.865Z,1008.6
2018-07-24T10:01:40.929Z,1008.5
2018-07-24T10:02:42.983Z,1008.6
2018-07-24T10:03:45.340Z,1008.6
2018-07-24T10:04:47.403Z,1008.6
2018-07-24T10:05:49.455Z,1008.6
2018-07-24T10:06:51.530Z,1008.5
2018-07-24T10:07:53.581Z,1008.5
2018-07-24T10:08:55.641Z,1008.5
2018-07-24T10:09:57.699Z,1008.5
2018-07-24T10:11:00.196Z,1008.5
2018-07-24T10:12:02.616Z,1008.5
2018-07-24T10:13:05.418Z,1008.5
2018-07-24T10:14:08.284Z,1008.5
2018-07-24T10:15:10.329Z,1008.5
2018-07-24T10:16:12.411Z,1008.4
2018-07-24T10:17:15.161Z,1008.4
2018-07-24T10:18:17.222Z,1008.4
2018-07-24T10:19:19.282Z,1008.4
2018-07-24T10:20:21.350Z,1008.4
2018-07-24T10:21:23.694Z,1008.4
2018-07-24T10:22:26.165Z,1008.5
2018-07-24T10:23:28.823Z,1008.4
2018-07-24T10:24:30.954Z,1008.4
2018-07-24T10:25:32.937Z,1008.4
2018-07-24T10:26:35.320Z,1008.4
2018-07-24T10:27:37.680Z,1008.4
2018-07-24T10:28:40.133Z,1008.4
2018-07-24T10:29:42.198Z,1008.4
2018-07-24T10:30:44.257Z,1008.4
2018-07-24T10:31:46.331Z,1008.3
2018-07-24T10:32:48.384Z,1008.4
2018-07-24T10:33:50.445Z,1008.4
2018-07-24T10:34:52.502Z,1008.4
2018-07-24T10:35:54.573Z,1008.4
2018-07-24T10:36:56.630Z,1008.4
2018-07-24T10:37:58.980Z,1008.4
2018-07-24T10:39:01.436Z,1008.4
2018-07-24T10:40:03.486Z,1008.4
2018-07-24T10:41:05.561Z,1008.3
2018-07-24T10:42:07.624Z,1008.3
2018-07-24T10:43:10.014Z,1008.4
2018-07-24T10:44:12.031Z,1008.3
2018-07-24T10:45:14.100Z,1008.4
2018-07-24T10:46:16.162Z,1008.3
2018-07-24T10:47:18.505Z,1008.4
2018-07-24T10:48:20.580Z,1008.3
2018-07-24T10:49:22.676Z,1008.4
2018-07-24T10:50:24.700Z,1008.3
2018-07-24T10:51:27.629Z,1008.3
2018-07-24T10:52:29.987Z,1008.3
2018-07-24T10:53:32.045Z,1008.3
2018-07-24T10:54:34.116Z,1008.3
2018-07-24T10:55:36.466Z,1008.3
2018-07-24T10:56:38.525Z,1008.3
2018-07-24T10:57:40.905Z,1008.2
2018-07-24T10:58:42.974Z,1008.2
2018-07-24T10:59:45.043Z,1008.2
2018-07-24T11:00:47.105Z,1008.2
2018-07-24T11:01:49.185Z,1008.2
2018-07-24T11:02:51.540Z,1008.1
2018-07-24T11:03:53.602Z,1008.2
2018-07-24T11:04:55.684Z,1008.2
2018-07-24T11:05:57.748Z,1008.2
2018-07-24T11:06:59.818Z,1008.1
2018-07-24T11:08:01.875Z,1008.1
2018-07-24T11:09:03.961Z,1008.1
2018-07-24T11:10:06.019Z,1008.1
2018-07-24T11:11:08.086Z,1008.1
2018-07-24T11:12:10.158Z,1008.1
2018-07-24T11:13:12.210Z,1008
2018-07-24T11:14:14.284Z,1008
2018-07-24T11:15:16.358Z,1008
2018-07-24T11:16:18.427Z,1008
2018-07-24T11:17:20.490Z,1008
2018-07-24T11:18:22.848Z,1008
2018-07-24T11:19:24.910Z,1008
2018-07-24T11:20:27.268Z,1008
2018-07-24T11:21:29.354Z,1008
2018-07-24T11:22:31.589Z,1008
2018-07-24T11:23:33.493Z,1008
2018-07-24T11:24:35.549Z,1007.9
2018-07-24T11:25:37.619Z,1008
2018-07-24T11:26:39.677Z,1007.9
2018-07-24T11:27:42.050Z,1007.9
2018-07-24T11:28:44.110Z,1007.8
2018-07-24T11:29:46.176Z,1007.8
2018-07-24T11:30:48.255Z,1007.9
2018-07-24T11:31:50.603Z,1007.9
2018-07-24T11:32:52.689Z,1007.9
2018-07-24T11:33:55.173Z,1007.8
2018-07-24T11:34:57.641Z,1007.9
2018-07-24T11:35:59.977Z,1007.9
2018-07-24T11:37:02.468Z,1007.9
2018-07-24T11:38:04.846Z,1007.9
2018-07-24T11:39:06.910Z,1007.9
2018-07-24T11:40:08.987Z,1007.9
2018-07-24T11:41:11.415Z,1007.9
2018-07-24T11:42:13.459Z,1007.8
2018-07-24T11:43:15.529Z,1007.8
2018-07-24T11:44:17.597Z,1007.8
2018-07-24T11:45:20.058Z,1007.8
2018-07-24T11:46:22.426Z,1007.8
2018-07-24T11:47:24.502Z,1007.8
2018-07-24T11:48:26.576Z,1007.8
2018-07-24T11:49:28.660Z,1007.8
2018-07-24T11:50:30.722Z,1007.8
2018-07-24T11:51:32.878Z,1007.9
2018-07-24T11:52:35.286Z,1007.8
2018-07-24T11:53:37.344Z,1007.8
2018-07-24T11:54:39.424Z,1007.8
2018-07-24T11:55:41.484Z,1007.8
2018-07-24T11:56:43.552Z,1007.8
2018-07-24T11:57:45.657Z,1007.8
2018-07-24T11:58:47.784Z,1007.8
2018-07-24T11:59:49.766Z,1007.8
2018-07-24T12:00:51.839Z,1007.7
2018-07-24T12:01:53.901Z,1007.8
2018-07-24T12:02:55.969Z,1007.8
2018-07-24T12:03:58.046Z,1007.8
2018-07-24T12:05:00.136Z,1007.8
2018-07-24T12:06:02.479Z,1007.7
2018-07-24T12:07:04.565Z,1007.8
2018-07-24T12:08:06.624Z,1007.7
2018-07-24T12:09:08.684Z,1007.7
2018-07-24T12:10:10.768Z,1007.7
2018-07-24T12:11:12.832Z,1007.6
2018-07-24T12:12:14.901Z,1007.6
2018-07-24T12:13:17.266Z,1007.6
2018-07-24T12:14:19.624Z,1007.6
2018-07-24T12:15:21.692Z,1007.6
2018-07-24T12:16:23.762Z,1007.6
2018-07-24T12:17:25.831Z,1007.6
2018-07-24T12:18:28.287Z,1007.6
2018-07-24T12:19:30.383Z,1007.6
2018-07-24T12:20:32.428Z,1007.5
2018-07-24T12:21:34.495Z,1007.5
2018-07-24T12:22:36.956Z,1007.5
2018-07-24T12:23:39.303Z,1007.5
2018-07-24T12:24:41.377Z,1007.5
2018-07-24T12:25:43.441Z,1007.5
2018-07-24T12:26:45.510Z,1007.5
2018-07-24T12:27:47.585Z,1007.5
2018-07-24T12:28:49.643Z,1007.4
2018-07-24T12:29:51.708Z,1007.4
2018-07-24T12:30:53.794Z,1007.4
2018-07-24T12:31:55.861Z,1007.3
2018-07-24T12:32:58.214Z,1007.3
2018-07-24T12:34:00.287Z,1007.4
2018-07-24T12:35:03.041Z,1007.4
2018-07-24T12:36:05.609Z,1007.4
2018-07-24T12:37:07.574Z,1007.4
2018-07-24T12:38:09.935Z,1007.4
2018-07-24T12:39:12.379Z,1007.4
2018-07-24T12:40:14.855Z,1007.3
2018-07-24T12:41:16.917Z,1007.3
2018-07-24T12:42:18.980Z,1007.4
2018-07-24T12:43:21.053Z,1007.3
2018-07-24T12:44:23.115Z,1007.3
2018-07-24T12:45:25.187Z,1007.3
2018-07-24T12:46:27.256Z,1007.3
2018-07-24T12:47:29.339Z,1007.3
2018-07-24T12:48:31.398Z,1007.3
2018-07-24T12:49:33.476Z,1007.3
2018-07-24T12:50:35.545Z,1007.3
2018-07-24T12:51:37.898Z,1007.3
2018-07-24T12:52:39.980Z,1007.2
2018-07-24T12:53:42.037Z,1007.3
2018-07-24T12:54:44.115Z,1007.3
2018-07-24T12:55:46.748Z,1007.3
2018-07-24T12:56:48.825Z,1007.3
2018-07-24T12:57:50.920Z,1007.3
2018-07-24T12:58:52.967Z,1007.4
2018-07-24T12:59:55.043Z,1007.3
2018-07-24T13:00:57.480Z,1007.2